sensor_id;sensor_type;location;lat;lon;timestamp;P1;durP1;ratioP1;P2;durP2;ratioP2
76204;SDS011;64986;55.672;37.628;2023-04-15T00:00:37;6.85;;;0.98;;
76204;SDS011;64986;55.672;37.628;2023-04-15T00:03:03;10.70;;;1.00;;
76204;SDS011;64986;55.672;37.628;2023-04-15T00:05:32;1.52;;;0.73;;
76204;SDS011;64986;55.672;37.628;2023-04-15T00:07:58;4.78;;;0.88;;
76204;SDS011;64986;55.672;37.628;2023-04-15T00:10:27;1.55;;;0.77;;
76204;SDS011;64986;55.672;37.628;2023-04-15T00:12:52;7.20;;;0.95;;
76204;SDS011;64986;55.672;37.628;2023-04-15T00:15:18;2.97;;;0.90;;
76204;SDS011;64986;55.672;37.628;2023-04-15T00:17:44;6.05;;;1.05;;
76204;SDS011;64986;55.672;37.628;2023-04-15T00:20:10;1.05;;;0.60;;
76204;SDS011;64986;55.672;37.628;2023-04-15T00:22:35;2.45;;;1.13;;
76204;SDS011;64986;55.672;37.628;2023-04-15T00:25:01;4.00;;;0.90;;
76204;SDS011;64986;55.672;37.628;2023-04-15T00:27:27;3.80;;;0.80;;
76204;SDS011;64986;55.672;37.628;2023-04-15T00:29:53;3.03;;;0.88;;
76204;SDS011;64986;55.672;37.628;2023-04-15T00:32:19;1.27;;;0.60;;
76204;SDS011;64986;55.672;37.628;2023-04-15T00:34:44;1.70;;;1.00;;
76204;SDS011;64986;55.672;37.628;2023-04-15T00:37:10;3.95;;;0.93;;
76204;SDS011;64986;55.672;37.628;2023-04-15T00:39:36;2.53;;;0.80;;
76204;SDS011;64986;55.672;37.628;2023-04-15T00:42:03;3.33;;;0.90;;
76204;SDS011;64986;55.672;37.628;2023-04-15T00:44:29;1.50;;;0.40;;
76204;SDS011;64986;55.672;37.628;2023-04-15T00:46:54;7.75;;;1.08;;
76204;SDS011;64986;55.672;37.628;2023-04-15T00:49:21;7.50;;;1.13;;
76204;SDS011;64986;55.672;37.628;2023-04-15T00:51:47;1.15;;;0.70;;
76204;SDS011;64986;55.672;37.628;2023-04-15T00:54:13;2.05;;;0.93;;
76204;SDS011;64986;55.672;37.628;2023-04-15T00:56:39;1.77;;;0.73;;
76204;SDS011;64986;55.672;37.628;2023-04-15T00:59:05;3.70;;;0.80;;
76204;SDS011;64986;55.672;37.628;2023-04-15T01:01:32;2.40;;;1.02;;
76204;SDS011;64986;55.672;37.628;2023-04-15T01:03:59;1.77;;;0.75;;
76204;SDS011;64986;55.672;37.628;2023-04-15T01:06:25;3.13;;;0.80;;
76204;SDS011;64986;55.672;37.628;2023-04-15T01:08:51;1.05;;;0.60;;
76204;SDS011;64986;55.672;37.628;2023-04-15T01:11:18;2.47;;;0.60;;
76204;SDS011;64986;55.672;37.628;2023-04-15T01:13:44;2.38;;;0.68;;
76204;SDS011;64986;55.672;37.628;2023-04-15T01:16:10;1.02;;;0.50;;
76204;SDS011;64986;55.672;37.628;2023-04-15T01:18:37;2.30;;;0.68;;
76204;SDS011;64986;55.672;37.628;2023-04-15T01:21:03;2.22;;;1.00;;
76204;SDS011;64986;55.672;37.628;2023-04-15T01:23:30;3.30;;;1.15;;
76204;SDS011;64986;55.672;37.628;2023-04-15T01:25:56;1.60;;;0.60;;
76204;SDS011;64986;55.672;37.628;2023-04-15T01:28:23;5.63;;;1.05;;
76204;SDS011;64986;55.672;37.628;2023-04-15T01:30:49;2.88;;;0.95;;
76204;SDS011;64986;55.672;37.628;2023-04-15T01:33:15;4.90;;;1.00;;
76204;SDS011;64986;55.672;37.628;2023-04-15T01:35:40;1.35;;;0.73;;
76204;SDS011;64986;55.672;37.628;2023-04-15T01:38:08;3.33;;;0.80;;
76204;SDS011;64986;55.672;37.628;2023-04-15T01:40:35;1.52;;;0.80;;
76204;SDS011;64986;55.672;37.628;2023-04-15T01:43:01;2.25;;;0.85;;
76204;SDS011;64986;55.672;37.628;2023-04-15T01:45:27;3.83;;;0.93;;
76204;SDS011;64986;55.672;37.628;2023-04-15T01:47:53;1.80;;;0.75;;
76204;SDS011;64986;55.672;37.628;2023-04-15T01:50:19;0.50;;;0.40;;
76204;SDS011;64986;55.672;37.628;2023-04-15T01:52:46;4.68;;;0.90;;
76204;SDS011;64986;55.672;37.628;2023-04-15T01:55:12;2.65;;;1.02;;
76204;SDS011;64986;55.672;37.628;2023-04-15T01:57:38;2.85;;;1.15;;
76204;SDS011;64986;55.672;37.628;2023-04-15T02:00:04;4.40;;;0.95;;
76204;SDS011;64986;55.672;37.628;2023-04-15T02:02:33;3.47;;;1.10;;
76204;SDS011;64986;55.672;37.628;2023-04-15T02:04:59;2.80;;;1.50;;
76204;SDS011;64986;55.672;37.628;2023-04-15T02:07:25;2.55;;;1.00;;
76204;SDS011;64986;55.672;37.628;2023-04-15T02:09:52;2.30;;;1.08;;
76204;SDS011;64986;55.672;37.628;2023-04-15T02:12:18;1.92;;;0.90;;
76204;SDS011;64986;55.672;37.628;2023-04-15T02:14:43;3.45;;;0.98;;
76204;SDS011;64986;55.672;37.628;2023-04-15T02:17:09;5.40;;;2.42;;
76204;SDS011;64986;55.672;37.628;2023-04-15T02:19:35;5.78;;;1.73;;
76204;SDS011;64986;55.672;37.628;2023-04-15T02:22:00;3.40;;;1.88;;
76204;SDS011;64986;55.672;37.628;2023-04-15T02:24:26;3.35;;;1.50;;
76204;SDS011;64986;55.672;37.628;2023-04-15T02:26:53;3.65;;;1.55;;
76204;SDS011;64986;55.672;37.628;2023-04-15T02:29:18;2.88;;;2.03;;
76204;SDS011;64986;55.672;37.628;2023-04-15T02:31:44;2.10;;;0.85;;
76204;SDS011;64986;55.672;37.628;2023-04-15T02:34:10;3.13;;;1.00;;
76204;SDS011;64986;55.672;37.628;2023-04-15T02:36:35;5.38;;;1.17;;
76204;SDS011;64986;55.672;37.628;2023-04-15T02:39:01;0.93;;;0.70;;
76204;SDS011;64986;55.672;37.628;2023-04-15T02:41:28;1.90;;;0.77;;
76204;SDS011;64986;55.672;37.628;2023-04-15T02:43:54;1.13;;;0.75;;
76204;SDS011;64986;55.672;37.628;2023-04-15T02:46:20;3.17;;;0.90;;
76204;SDS011;64986;55.672;37.628;2023-04-15T02:48:47;4.35;;;1.40;;
76204;SDS011;64986;55.672;37.628;2023-04-15T02:51:14;7.97;;;1.38;;
76204;SDS011;64986;55.672;37.628;2023-04-15T02:53:41;2.75;;;0.70;;
76204;SDS011;64986;55.672;37.628;2023-04-15T02:56:07;3.40;;;0.90;;
76204;SDS011;64986;55.672;37.628;2023-04-15T02:58:33;3.33;;;1.58;;
76204;SDS011;64986;55.672;37.628;2023-04-15T03:01:00;2.55;;;0.93;;
76204;SDS011;64986;55.672;37.628;2023-04-15T03:03:25;1.63;;;0.70;;
76204;SDS011;64986;55.672;37.628;2023-04-15T03:05:52;2.08;;;0.90;;
76204;SDS011;64986;55.672;37.628;2023-04-15T03:08:18;6.15;;;0.95;;
76204;SDS011;64986;55.672;37.628;2023-04-15T03:10:45;1.40;;;0.82;;
76204;SDS011;64986;55.672;37.628;2023-04-15T03:13:11;3.08;;;1.30;;
76204;SDS011;64986;55.672;37.628;2023-04-15T03:15:37;3.45;;;1.00;;
76204;SDS011;64986;55.672;37.628;2023-04-15T03:18:02;2.08;;;0.60;;
76204;SDS011;64986;55.672;37.628;2023-04-15T03:20:28;9.95;;;1.55;;
76204;SDS011;64986;55.672;37.628;2023-04-15T03:22:53;6.57;;;0.90;;
76204;SDS011;64986;55.672;37.628;2023-04-15T03:25:19;8.30;;;2.40;;
76204;SDS011;64986;55.672;37.628;2023-04-15T03:27:44;3.70;;;1.70;;
76204;SDS011;64986;55.672;37.628;2023-04-15T03:30:10;8.15;;;1.10;;
76204;SDS011;64986;55.672;37.628;2023-04-15T03:32:36;3.47;;;1.30;;
76204;SDS011;64986;55.672;37.628;2023-04-15T03:35:02;1.42;;;0.80;;
76204;SDS011;64986;55.672;37.628;2023-04-15T03:37:27;4.43;;;1.10;;
76204;SDS011;64986;55.672;37.628;2023-04-15T03:39:53;5.45;;;1.30;;
76204;SDS011;64986;55.672;37.628;2023-04-15T03:42:18;7.95;;;1.25;;
76204;SDS011;64986;55.672;37.628;2023-04-15T03:44:44;4.32;;;1.15;;
76204;SDS011;64986;55.672;37.628;2023-04-15T03:47:09;4.78;;;1.90;;
76204;SDS011;64986;55.672;37.628;2023-04-15T03:49:35;5.20;;;1.48;;
76204;SDS011;64986;55.672;37.628;2023-04-15T03:52:01;6.50;;;1.50;;
76204;SDS011;64986;55.672;37.628;2023-04-15T03:54:26;7.63;;;2.33;;
76204;SDS011;64986;55.672;37.628;2023-04-15T03:56:52;8.85;;;1.42;;
76204;SDS011;64986;55.672;37.628;2023-04-15T03:59:18;4.75;;;1.30;;
76204;SDS011;64986;55.672;37.628;2023-04-15T04:01:44;2.13;;;1.02;;
76204;SDS011;64986;55.672;37.628;2023-04-15T04:04:09;3.90;;;1.08;;
76204;SDS011;64986;55.672;37.628;2023-04-15T04:06:35;9.35;;;1.90;;
76204;SDS011;64986;55.672;37.628;2023-04-15T04:09:01;2.40;;;1.17;;
76204;SDS011;64986;55.672;37.628;2023-04-15T04:11:26;2.22;;;1.17;;
76204;SDS011;64986;55.672;37.628;2023-04-15T04:13:52;3.38;;;1.35;;
76204;SDS011;64986;55.672;37.628;2023-04-15T04:16:18;3.75;;;1.52;;
76204;SDS011;64986;55.672;37.628;2023-04-15T04:18:44;2.70;;;1.40;;
76204;SDS011;64986;55.672;37.628;2023-04-15T04:21:09;4.70;;;1.30;;
76204;SDS011;64986;55.672;37.628;2023-04-15T04:23:35;2.17;;;1.33;;
76204;SDS011;64986;55.672;37.628;2023-04-15T04:26:01;4.70;;;1.30;;
76204;SDS011;64986;55.672;37.628;2023-04-15T04:28:26;2.70;;;0.95;;
76204;SDS011;64986;55.672;37.628;2023-04-15T04:30:52;7.60;;;1.67;;
76204;SDS011;64986;55.672;37.628;2023-04-15T04:33:17;6.78;;;1.95;;
76204;SDS011;64986;55.672;37.628;2023-04-15T04:35:43;7.03;;;1.40;;
76204;SDS011;64986;55.672;37.628;2023-04-15T04:38:08;5.40;;;1.95;;
76204;SDS011;64986;55.672;37.628;2023-04-15T04:40:34;3.58;;;1.30;;
76204;SDS011;64986;55.672;37.628;2023-04-15T04:43:00;4.70;;;1.10;;
76204;SDS011;64986;55.672;37.628;2023-04-15T04:45:25;5.65;;;1.50;;
76204;SDS011;64986;55.672;37.628;2023-04-15T04:47:51;10.48;;;1.77;;
76204;SDS011;64986;55.672;37.628;2023-04-15T04:50:16;3.10;;;1.25;;
76204;SDS011;64986;55.672;37.628;2023-04-15T04:52:42;8.68;;;1.50;;
76204;SDS011;64986;55.672;37.628;2023-04-15T04:55:07;5.35;;;1.48;;
76204;SDS011;64986;55.672;37.628;2023-04-15T04:57:33;6.65;;;2.67;;
76204;SDS011;64986;55.672;37.628;2023-04-15T05:00:03;4.95;;;1.30;;
76204;SDS011;64986;55.672;37.628;2023-04-15T05:02:30;10.93;;;2.55;;
76204;SDS011;64986;55.672;37.628;2023-04-15T05:04:56;5.80;;;1.52;;
76204;SDS011;64986;55.672;37.628;2023-04-15T05:07:22;6.22;;;2.17;;
76204;SDS011;64986;55.672;37.628;2023-04-15T05:09:47;3.33;;;0.90;;
76204;SDS011;64986;55.672;37.628;2023-04-15T05:12:13;7.60;;;1.00;;
76204;SDS011;64986;55.672;37.628;2023-04-15T05:14:42;9.15;;;1.77;;
76204;SDS011;64986;55.672;37.628;2023-04-15T05:17:07;7.38;;;3.17;;
76204;SDS011;64986;55.672;37.628;2023-04-15T05:19:33;10.60;;;4.53;;
76204;SDS011;64986;55.672;37.628;2023-04-15T05:21:59;4.03;;;2.10;;
76204;SDS011;64986;55.672;37.628;2023-04-15T05:24:25;4.80;;;2.10;;
76204;SDS011;64986;55.672;37.628;2023-04-15T05:26:51;8.52;;;1.90;;
76204;SDS011;64986;55.672;37.628;2023-04-15T05:29:16;6.55;;;1.40;;
76204;SDS011;64986;55.672;37.628;2023-04-15T05:31:42;6.72;;;2.40;;
76204;SDS011;64986;55.672;37.628;2023-04-15T05:34:08;4.85;;;1.75;;
76204;SDS011;64986;55.672;37.628;2023-04-15T05:36:34;7.05;;;2.78;;
76204;SDS011;64986;55.672;37.628;2023-04-15T05:39:00;14.88;;;7.20;;
76204;SDS011;64986;55.672;37.628;2023-04-15T05:41:25;8.45;;;3.13;;
76204;SDS011;64986;55.672;37.628;2023-04-15T05:43:51;12.68;;;3.25;;
76204;SDS011;64986;55.672;37.628;2023-04-15T05:46:17;6.80;;;2.10;;
76204;SDS011;64986;55.672;37.628;2023-04-15T05:48:42;11.07;;;2.25;;
76204;SDS011;64986;55.672;37.628;2023-04-15T05:51:08;6.88;;;3.08;;
76204;SDS011;64986;55.672;37.628;2023-04-15T05:53:33;6.03;;;2.50;;
76204;SDS011;64986;55.672;37.628;2023-04-15T05:55:59;4.30;;;1.98;;
76204;SDS011;64986;55.672;37.628;2023-04-15T05:58:24;4.93;;;1.98;;
76204;SDS011;64986;55.672;37.628;2023-04-15T06:00:50;10.93;;;1.85;;
76204;SDS011;64986;55.672;37.628;2023-04-15T06:03:15;9.13;;;1.52;;
76204;SDS011;64986;55.672;37.628;2023-04-15T06:05:42;4.43;;;1.63;;
76204;SDS011;64986;55.672;37.628;2023-04-15T06:08:09;6.38;;;1.17;;
76204;SDS011;64986;55.672;37.628;2023-04-15T06:10:35;4.35;;;1.55;;
76204;SDS011;64986;55.672;37.628;2023-04-15T06:13:01;2.50;;;1.58;;
76204;SDS011;64986;55.672;37.628;2023-04-15T06:15:31;6.05;;;1.42;;
76204;SDS011;64986;55.672;37.628;2023-04-15T06:17:56;6.68;;;1.30;;
76204;SDS011;64986;55.672;37.628;2023-04-15T06:20:22;7.68;;;1.60;;
76204;SDS011;64986;55.672;37.628;2023-04-15T06:22:48;5.60;;;1.30;;
76204;SDS011;64986;55.672;37.628;2023-04-15T06:25:13;18.45;;;3.78;;
76204;SDS011;64986;55.672;37.628;2023-04-15T06:27:39;9.05;;;2.10;;
76204;SDS011;64986;55.672;37.628;2023-04-15T06:30:04;4.68;;;1.50;;
76204;SDS011;64986;55.672;37.628;2023-04-15T06:32:31;6.85;;;1.52;;
76204;SDS011;64986;55.672;37.628;2023-04-15T06:34:57;3.92;;;1.30;;
76204;SDS011;64986;55.672;37.628;2023-04-15T06:37:22;8.32;;;1.50;;
76204;SDS011;64986;55.672;37.628;2023-04-15T06:39:48;15.68;;;2.45;;
76204;SDS011;64986;55.672;37.628;2023-04-15T06:42:13;3.58;;;1.10;;
76204;SDS011;64986;55.672;37.628;2023-04-15T06:44:39;7.47;;;1.40;;
76204;SDS011;64986;55.672;37.628;2023-04-15T06:47:05;7.78;;;1.50;;
76204;SDS011;64986;55.672;37.628;2023-04-15T06:49:30;8.45;;;1.58;;
76204;SDS011;64986;55.672;37.628;2023-04-15T06:51:56;7.25;;;1.80;;
76204;SDS011;64986;55.672;37.628;2023-04-15T06:54:21;6.97;;;1.55;;
76204;SDS011;64986;55.672;37.628;2023-04-15T06:56:47;8.38;;;1.02;;
76204;SDS011;64986;55.672;37.628;2023-04-15T06:59:13;4.57;;;1.50;;
76204;SDS011;64986;55.672;37.628;2023-04-15T07:01:41;4.28;;;1.67;;
76204;SDS011;64986;55.672;37.628;2023-04-15T07:04:07;8.23;;;1.75;;
76204;SDS011;64986;55.672;37.628;2023-04-15T07:06:32;4.20;;;1.33;;
76204;SDS011;64986;55.672;37.628;2023-04-15T07:08:59;6.15;;;1.27;;
76204;SDS011;64986;55.672;37.628;2023-04-15T07:11:25;7.43;;;0.90;;
76204;SDS011;64986;55.672;37.628;2023-04-15T07:13:51;9.20;;;1.50;;
76204;SDS011;64986;55.672;37.628;2023-04-15T07:16:16;8.32;;;1.98;;
76204;SDS011;64986;55.672;37.628;2023-04-15T07:18:42;6.78;;;1.27;;
76204;SDS011;64986;55.672;37.628;2023-04-15T07:21:08;9.15;;;1.63;;
76204;SDS011;64986;55.672;37.628;2023-04-15T07:23:33;6.90;;;1.40;;
76204;SDS011;64986;55.672;37.628;2023-04-15T07:25:59;10.00;;;2.22;;
76204;SDS011;64986;55.672;37.628;2023-04-15T07:28:26;18.15;;;1.92;;
76204;SDS011;64986;55.672;37.628;2023-04-15T07:30:51;11.02;;;2.13;;
76204;SDS011;64986;55.672;37.628;2023-04-15T07:33:17;6.30;;;1.55;;
76204;SDS011;64986;55.672;37.628;2023-04-15T07:35:43;10.15;;;1.88;;
76204;SDS011;64986;55.672;37.628;2023-04-15T07:38:09;4.90;;;1.35;;
76204;SDS011;64986;55.672;37.628;2023-04-15T07:40:36;7.85;;;1.55;;
76204;SDS011;64986;55.672;37.628;2023-04-15T07:43:03;11.82;;;2.05;;
76204;SDS011;64986;55.672;37.628;2023-04-15T07:45:29;7.05;;;1.80;;
76204;SDS011;64986;55.672;37.628;2023-04-15T07:47:55;4.15;;;1.23;;
76204;SDS011;64986;55.672;37.628;2023-04-15T07:50:21;35.20;;;3.75;;
76204;SDS011;64986;55.672;37.628;2023-04-15T07:52:47;3.90;;;1.30;;
76204;SDS011;64986;55.672;37.628;2023-04-15T07:55:13;20.85;;;2.10;;
76204;SDS011;64986;55.672;37.628;2023-04-15T07:57:40;8.07;;;1.63;;
76204;SDS011;64986;55.672;37.628;2023-04-15T08:00:06;13.48;;;1.95;;
76204;SDS011;64986;55.672;37.628;2023-04-15T08:02:32;3.22;;;1.20;;
76204;SDS011;64986;55.672;37.628;2023-04-15T08:04:58;7.75;;;1.90;;
76204;SDS011;64986;55.672;37.628;2023-04-15T08:07:23;2.88;;;1.70;;
76204;SDS011;64986;55.672;37.628;2023-04-15T08:09:50;13.52;;;2.95;;
76204;SDS011;64986;55.672;37.628;2023-04-15T08:12:15;11.68;;;2.17;;
76204;SDS011;64986;55.672;37.628;2023-04-15T08:14:41;2.58;;;1.48;;
76204;SDS011;64986;55.672;37.628;2023-04-15T08:17:06;12.23;;;1.95;;
76204;SDS011;64986;55.672;37.628;2023-04-15T08:19:32;5.57;;;2.33;;
76204;SDS011;64986;55.672;37.628;2023-04-15T08:21:58;3.58;;;1.25;;
76204;SDS011;64986;55.672;37.628;2023-04-15T08:24:23;8.23;;;2.15;;
76204;SDS011;64986;55.672;37.628;2023-04-15T08:26:50;6.63;;;2.05;;
76204;SDS011;64986;55.672;37.628;2023-04-15T08:29:16;11.45;;;2.17;;
76204;SDS011;64986;55.672;37.628;2023-04-15T08:31:42;8.63;;;1.52;;
76204;SDS011;64986;55.672;37.628;2023-04-15T08:34:07;12.80;;;2.75;;
76204;SDS011;64986;55.672;37.628;2023-04-15T08:36:33;11.30;;;2.15;;
76204;SDS011;64986;55.672;37.628;2023-04-15T08:38:59;4.55;;;1.70;;
76204;SDS011;64986;55.672;37.628;2023-04-15T08:41:31;5.25;;;1.70;;
76204;SDS011;64986;55.672;37.628;2023-04-15T08:44:04;14.70;;;3.28;;
76204;SDS011;64986;55.672;37.628;2023-04-15T08:46:30;4.20;;;1.77;;
76204;SDS011;64986;55.672;37.628;2023-04-15T08:48:58;10.20;;;1.88;;
76204;SDS011;64986;55.672;37.628;2023-04-15T08:51:25;6.85;;;2.47;;
76204;SDS011;64986;55.672;37.628;2023-04-15T08:53:51;6.53;;;1.92;;
76204;SDS011;64986;55.672;37.628;2023-04-15T08:56:17;5.97;;;1.90;;
76204;SDS011;64986;55.672;37.628;2023-04-15T08:58:44;7.53;;;3.33;;
76204;SDS011;64986;55.672;37.628;2023-04-15T09:01:11;8.70;;;2.40;;
76204;SDS011;64986;55.672;37.628;2023-04-15T09:03:38;8.98;;;2.40;;
76204;SDS011;64986;55.672;37.628;2023-04-15T09:06:05;5.35;;;1.67;;
76204;SDS011;64986;55.672;37.628;2023-04-15T09:08:31;7.18;;;2.25;;
76204;SDS011;64986;55.672;37.628;2023-04-15T09:10:58;7.95;;;2.20;;
76204;SDS011;64986;55.672;37.628;2023-04-15T09:13:24;4.65;;;1.90;;
76204;SDS011;64986;55.672;37.628;2023-04-15T09:15:50;9.02;;;1.92;;
76204;SDS011;64986;55.672;37.628;2023-04-15T09:21:07;5.65;;;1.65;;
76204;SDS011;64986;55.672;37.628;2023-04-15T09:23:38;8.93;;;2.70;;
76204;SDS011;64986;55.672;37.628;2023-04-15T09:26:06;8.02;;;2.60;;
76204;SDS011;64986;55.672;37.628;2023-04-15T09:28:32;8.85;;;2.08;;
76204;SDS011;64986;55.672;37.628;2023-04-15T09:31:05;8.13;;;2.75;;
76204;SDS011;64986;55.672;37.628;2023-04-15T09:33:31;12.45;;;2.30;;
76204;SDS011;64986;55.672;37.628;2023-04-15T09:36:00;6.63;;;2.30;;
76204;SDS011;64986;55.672;37.628;2023-04-15T09:38:28;5.60;;;2.88;;
76204;SDS011;64986;55.672;37.628;2023-04-15T09:40:55;6.45;;;2.65;;
76204;SDS011;64986;55.672;37.628;2023-04-15T09:43:22;6.80;;;2.05;;
76204;SDS011;64986;55.672;37.628;2023-04-15T09:45:50;33.15;;;5.82;;
76204;SDS011;64986;55.672;37.628;2023-04-15T09:53:22;7.68;;;2.75;;
76204;SDS011;64986;55.672;37.628;2023-04-15T09:55:52;15.52;;;2.50;;
76204;SDS011;64986;55.672;37.628;2023-04-15T09:58:21;13.20;;;2.40;;
76204;SDS011;64986;55.672;37.628;2023-04-15T10:00:48;6.28;;;2.40;;
76204;SDS011;64986;55.672;37.628;2023-04-15T10:03:18;7.70;;;2.00;;
76204;SDS011;64986;55.672;37.628;2023-04-15T10:05:49;8.65;;;2.53;;
76204;SDS011;64986;55.672;37.628;2023-04-15T10:08:17;6.80;;;2.42;;
76204;SDS011;64986;55.672;37.628;2023-04-15T10:10:44;16.92;;;2.80;;
76204;SDS011;64986;55.672;37.628;2023-04-15T10:13:12;5.30;;;2.88;;
76204;SDS011;64986;55.672;37.628;2023-04-15T10:15:43;9.90;;;2.85;;
76204;SDS011;64986;55.672;37.628;2023-04-15T10:18:14;7.22;;;2.10;;
76204;SDS011;64986;55.672;37.628;2023-04-15T10:20:43;21.30;;;3.75;;
76204;SDS011;64986;55.672;37.628;2023-04-15T10:23:11;13.57;;;2.28;;
76204;SDS011;64986;55.672;37.628;2023-04-15T10:25:37;7.45;;;2.33;;
76204;SDS011;64986;55.672;37.628;2023-04-15T10:28:03;11.07;;;2.60;;
76204;SDS011;64986;55.672;37.628;2023-04-15T10:30:31;11.63;;;2.80;;
76204;SDS011;64986;55.672;37.628;2023-04-15T10:32:57;6.10;;;2.00;;
76204;SDS011;64986;55.672;37.628;2023-04-15T10:35:24;6.78;;;2.63;;
76204;SDS011;64986;55.672;37.628;2023-04-15T10:37:50;6.65;;;3.13;;
76204;SDS011;64986;55.672;37.628;2023-04-15T10:40:22;4.45;;;1.95;;
76204;SDS011;64986;55.672;37.628;2023-04-15T10:42:52;8.05;;;2.03;;
76204;SDS011;64986;55.672;37.628;2023-04-15T10:45:18;9.40;;;2.75;;
76204;SDS011;64986;55.672;37.628;2023-04-15T10:47:44;7.68;;;2.55;;
76204;SDS011;64986;55.672;37.628;2023-04-15T10:50:09;6.10;;;2.17;;
76204;SDS011;64986;55.672;37.628;2023-04-15T10:52:36;4.50;;;1.40;;
76204;SDS011;64986;55.672;37.628;2023-04-15T10:55:12;9.02;;;2.35;;
76204;SDS011;64986;55.672;37.628;2023-04-15T10:57:40;6.15;;;1.88;;
76204;SDS011;64986;55.672;37.628;2023-04-15T11:05:12;10.05;;;2.28;;
76204;SDS011;64986;55.672;37.628;2023-04-15T11:12:45;6.20;;;1.92;;
76204;SDS011;64986;55.672;37.628;2023-04-15T11:18:21;7.88;;;2.53;;
76204;SDS011;64986;55.672;37.628;2023-04-15T11:20:56;5.15;;;1.95;;
76204;SDS011;64986;55.672;37.628;2023-04-15T11:23:38;5.78;;;1.90;;
76204;SDS011;64986;55.672;37.628;2023-04-15T11:26:08;5.38;;;2.53;;
76204;SDS011;64986;55.672;37.628;2023-04-15T11:28:36;10.48;;;2.58;;
76204;SDS011;64986;55.672;37.628;2023-04-15T11:31:14;4.75;;;1.70;;
76204;SDS011;64986;55.672;37.628;2023-04-15T11:36:11;4.75;;;2.45;;
76204;SDS011;64986;55.672;37.628;2023-04-15T11:38:41;6.18;;;1.90;;
76204;SDS011;64986;55.672;37.628;2023-04-15T11:41:07;7.18;;;2.30;;
76204;SDS011;64986;55.672;37.628;2023-04-15T11:43:32;8.23;;;2.30;;
76204;SDS011;64986;55.672;37.628;2023-04-15T11:46:00;9.60;;;2.72;;
76204;SDS011;64986;55.672;37.628;2023-04-15T11:48:27;6.63;;;3.22;;
76204;SDS011;64986;55.672;37.628;2023-04-15T11:50:55;5.90;;;2.22;;
76204;SDS011;64986;55.672;37.628;2023-04-15T11:53:23;6.88;;;2.53;;
76204;SDS011;64986;55.672;37.628;2023-04-15T11:55:51;5.72;;;3.17;;
76204;SDS011;64986;55.672;37.628;2023-04-15T11:58:21;39.15;;;4.97;;
76204;SDS011;64986;55.672;37.628;2023-04-15T12:00:52;7.32;;;2.45;;
76204;SDS011;64986;55.672;37.628;2023-04-15T12:11:14;7.35;;;2.28;;
76204;SDS011;64986;55.672;37.628;2023-04-15T12:13:44;7.75;;;2.10;;
76204;SDS011;64986;55.672;37.628;2023-04-15T12:16:11;8.07;;;2.42;;
76204;SDS011;64986;55.672;37.628;2023-04-15T12:18:37;3.95;;;1.92;;
76204;SDS011;64986;55.672;37.628;2023-04-15T12:21:09;18.73;;;2.80;;
76204;SDS011;64986;55.672;37.628;2023-04-15T12:23:38;8.10;;;2.38;;
76204;SDS011;64986;55.672;37.628;2023-04-15T12:26:11;11.75;;;2.90;;
76204;SDS011;64986;55.672;37.628;2023-04-15T12:28:39;6.35;;;2.65;;
76204;SDS011;64986;55.672;37.628;2023-04-15T12:31:06;8.50;;;2.13;;
76204;SDS011;64986;55.672;37.628;2023-04-15T12:33:33;16.55;;;2.75;;
76204;SDS011;64986;55.672;37.628;2023-04-15T12:35:59;6.20;;;2.08;;
76204;SDS011;64986;55.672;37.628;2023-04-15T12:38:25;9.85;;;2.50;;
76204;SDS011;64986;55.672;37.628;2023-04-15T12:40:50;5.47;;;2.05;;
76204;SDS011;64986;55.672;37.628;2023-04-15T12:43:16;4.90;;;2.03;;
76204;SDS011;64986;55.672;37.628;2023-04-15T12:45:41;7.05;;;1.77;;
76204;SDS011;64986;55.672;37.628;2023-04-15T12:48:07;9.38;;;1.90;;
76204;SDS011;64986;55.672;37.628;2023-04-15T12:50:33;5.30;;;1.85;;
76204;SDS011;64986;55.672;37.628;2023-04-15T12:53:00;10.15;;;3.22;;
76204;SDS011;64986;55.672;37.628;2023-04-15T12:55:25;9.55;;;2.20;;
76204;SDS011;64986;55.672;37.628;2023-04-15T12:57:51;6.15;;;2.40;;
76204;SDS011;64986;55.672;37.628;2023-04-15T13:00:17;3.28;;;1.85;;
76204;SDS011;64986;55.672;37.628;2023-04-15T13:02:43;3.97;;;2.70;;
76204;SDS011;64986;55.672;37.628;2023-04-15T13:05:08;5.55;;;2.33;;
76204;SDS011;64986;55.672;37.628;2023-04-15T13:07:34;7.22;;;2.80;;
76204;SDS011;64986;55.672;37.628;2023-04-15T13:10:00;8.77;;;2.00;;
76204;SDS011;64986;55.672;37.628;2023-04-15T13:12:26;13.80;;;4.85;;
76204;SDS011;64986;55.672;37.628;2023-04-15T13:14:51;4.25;;;1.70;;
76204;SDS011;64986;55.672;37.628;2023-04-15T13:17:17;8.75;;;2.70;;
76204;SDS011;64986;55.672;37.628;2023-04-15T13:19:44;7.00;;;2.33;;
76204;SDS011;64986;55.672;37.628;2023-04-15T13:22:10;8.18;;;2.20;;
76204;SDS011;64986;55.672;37.628;2023-04-15T13:24:36;7.72;;;3.20;;
76204;SDS011;64986;55.672;37.628;2023-04-15T13:27:03;6.85;;;2.20;;
76204;SDS011;64986;55.672;37.628;2023-04-15T13:29:29;9.88;;;3.00;;
76204;SDS011;64986;55.672;37.628;2023-04-15T13:31:54;5.13;;;2.40;;
76204;SDS011;64986;55.672;37.628;2023-04-15T13:34:20;10.48;;;2.55;;
76204;SDS011;64986;55.672;37.628;2023-04-15T13:36:46;5.75;;;2.95;;
76204;SDS011;64986;55.672;37.628;2023-04-15T13:39:12;8.13;;;2.80;;
76204;SDS011;64986;55.672;37.628;2023-04-15T13:41:37;8.23;;;3.40;;
76204;SDS011;64986;55.672;37.628;2023-04-15T13:44:03;13.07;;;2.67;;
76204;SDS011;64986;55.672;37.628;2023-04-15T13:46:29;7.15;;;3.28;;
76204;SDS011;64986;55.672;37.628;2023-04-15T13:48:55;8.50;;;2.90;;
76204;SDS011;64986;55.672;37.628;2023-04-15T13:51:20;4.43;;;2.25;;
76204;SDS011;64986;55.672;37.628;2023-04-15T13:53:46;6.32;;;2.42;;
76204;SDS011;64986;55.672;37.628;2023-04-15T13:56:11;8.73;;;2.92;;
76204;SDS011;64986;55.672;37.628;2023-04-15T13:58:37;4.05;;;2.05;;
76204;SDS011;64986;55.672;37.628;2023-04-15T14:01:03;7.53;;;2.30;;
76204;SDS011;64986;55.672;37.628;2023-04-15T14:03:29;5.03;;;1.77;;
76204;SDS011;64986;55.672;37.628;2023-04-15T14:05:54;5.50;;;2.63;;
76204;SDS011;64986;55.672;37.628;2023-04-15T14:08:21;9.40;;;3.75;;
76204;SDS011;64986;55.672;37.628;2023-04-15T14:10:47;8.43;;;3.70;;
76204;SDS011;64986;55.672;37.628;2023-04-15T14:13:13;8.45;;;3.47;;
76204;SDS011;64986;55.672;37.628;2023-04-15T14:15:39;8.27;;;2.78;;
76204;SDS011;64986;55.672;37.628;2023-04-15T14:18:05;4.28;;;2.13;;
76204;SDS011;64986;55.672;37.628;2023-04-15T14:20:32;8.55;;;3.13;;
76204;SDS011;64986;55.672;37.628;2023-04-15T14:22:57;7.30;;;2.33;;
76204;SDS011;64986;55.672;37.628;2023-04-15T14:25:23;7.68;;;3.40;;
76204;SDS011;64986;55.672;37.628;2023-04-15T14:27:49;9.00;;;3.65;;
76204;SDS011;64986;55.672;37.628;2023-04-15T14:30:15;6.82;;;2.60;;
76204;SDS011;64986;55.672;37.628;2023-04-15T14:32:41;8.50;;;3.28;;
76204;SDS011;64986;55.672;37.628;2023-04-15T14:35:07;11.20;;;3.42;;
76204;SDS011;64986;55.672;37.628;2023-04-15T14:37:32;5.90;;;2.80;;
76204;SDS011;64986;55.672;37.628;2023-04-15T14:39:58;9.13;;;4.28;;
76204;SDS011;64986;55.672;37.628;2023-04-15T14:42:23;11.93;;;5.55;;
76204;SDS011;64986;55.672;37.628;2023-04-15T14:44:49;7.28;;;3.42;;
76204;SDS011;64986;55.672;37.628;2023-04-15T14:47:15;7.55;;;2.97;;
76204;SDS011;64986;55.672;37.628;2023-04-15T14:49:40;10.88;;;5.75;;
76204;SDS011;64986;55.672;37.628;2023-04-15T14:52:06;10.02;;;3.63;;
76204;SDS011;64986;55.672;37.628;2023-04-15T14:54:31;6.13;;;3.17;;
76204;SDS011;64986;55.672;37.628;2023-04-15T14:56:57;11.02;;;3.20;;
76204;SDS011;64986;55.672;37.628;2023-04-15T14:59:22;10.75;;;4.93;;